createdAt,value
2023-01-13T03:44:25.192Z,7.90
2023-01-13T03:47:00.876Z,9.00
2023-01-13T03:49:37.085Z,8.90
2023-01-13T03:52:07.547Z,9.00
2023-01-13T03:54:41.764Z,9.10
2023-01-13T03:57:12.040Z,9.00
2023-01-13T03:59:44.267Z,9.10
2023-01-13T04:02:18.177Z,9.10
2023-01-13T04:04:47.855Z,9.10
2023-01-13T06:15:21.954Z,9.10
2023-01-13T06:17:48.703Z,9.70
2023-01-13T06:20:16.525Z,9.70
2023-01-13T06:22:46.522Z,9.70
2023-01-13T06:25:29.160Z,9.70
2023-01-13T06:27:58.419Z,9.70
2023-01-13T06:30:26.800Z,9.70
2023-01-13T06:32:55.491Z,9.70
2023-01-13T06:35:29.200Z,9.70
2023-01-13T06:37:57.857Z,9.70
2023-01-13T06:40:24.732Z,9.60
2023-01-13T06:43:15.968Z,9.60
2023-01-13T07:03:12.090Z,9.60
2023-01-13T07:05:39.236Z,9.50
2023-01-13T07:08:06.631Z,9.50
2023-01-13T07:10:34.597Z,9.60
2023-01-13T07:13:21.563Z,9.60
2023-01-13T07:15:59.454Z,9.50
2023-01-13T07:18:28.670Z,9.50
2023-01-13T07:20:56.985Z,9.50
2023-01-13T07:23:24.382Z,9.50
2023-01-13T07:25:51.063Z,9.50
2023-01-13T07:28:17.767Z,9.50
2023-01-13T07:30:44.647Z,9.40
2023-01-13T07:33:11.337Z,9.40
2023-01-13T07:35:38.011Z,9.40
2023-01-13T07:38:04.744Z,9.40
2023-01-13T07:40:31.344Z,9.40
2023-01-13T07:43:16.508Z,9.40
2023-01-13T07:45:43.232Z,9.40
2023-01-13T07:48:10.242Z,9.40
2023-01-13T07:50:36.899Z,9.40
2023-01-13T07:53:03.587Z,9.40
2023-01-13T07:55:30.283Z,9.50
2023-01-13T07:57:56.948Z,9.50
2023-01-13T08:00:23.893Z,9.60
2023-01-13T08:02:50.465Z,9.60
2023-01-13T08:05:18.192Z,9.60
2023-01-13T08:07:44.830Z,9.60
2023-01-13T08:10:11.664Z,9.70
2023-01-13T08:12:57.121Z,9.60
2023-01-13T08:15:23.928Z,9.60
2023-01-13T08:17:50.526Z,9.60
2023-01-13T08:20:17.348Z,9.60
2023-01-13T08:22:44.305Z,9.70
2023-01-13T08:25:11.007Z,9.70
2023-01-13T08:27:37.647Z,9.70
2023-01-13T08:30:05.541Z,9.70
2023-01-13T08:32:32.202Z,9.70
2023-01-13T08:34:58.781Z,9.70
2023-01-13T08:37:25.391Z,9.80
2023-01-13T08:39:51.989Z,9.80
2023-01-13T08:42:18.648Z,9.90
2023-01-13T08:44:45.230Z,9.90
2023-01-13T08:47:11.887Z,9.80
2023-01-13T08:49:38.543Z,9.80
2023-01-13T08:52:05.595Z,9.80
2023-01-13T08:54:32.208Z,9.80
2023-01-13T08:56:58.984Z,9.90
2023-01-13T08:59:25.707Z,9.90
2023-01-13T09:01:52.473Z,10.00
2023-01-13T09:04:22.687Z,10.00
2023-01-13T09:06:50.451Z,10.10
2023-01-13T09:09:17.472Z,10.10
2023-01-13T09:12:05.529Z,10.10
2023-01-13T09:14:35.172Z,10.20
2023-01-13T09:17:02.148Z,10.20
2023-01-13T09:19:29.546Z,10.30
2023-01-13T09:21:57.065Z,10.30
2023-01-13T09:24:24.818Z,10.40
2023-01-13T09:26:51.559Z,10.40
2023-01-13T09:29:18.748Z,10.50
2023-01-13T09:31:45.801Z,10.50
2023-01-13T09:34:38.044Z,10.50
2023-01-13T09:37:07.157Z,10.50
2023-01-13T09:52:43.422Z,10.60
2023-01-13T09:55:14.390Z,10.80
2023-01-13T09:57:41.271Z,10.80
2023-01-13T10:00:21.238Z,10.80
2023-01-13T10:03:18.203Z,10.90
2023-01-13T10:05:50.741Z,10.90
2023-01-13T10:08:23.810Z,10.90
2023-01-13T10:10:55.178Z,11.00
2023-01-13T10:13:27.811Z,10.90
2023-01-13T10:16:21.095Z,10.90
2023-01-13T10:19:03.455Z,10.90
2023-01-13T10:22:02.366Z,11.00
2023-01-13T10:25:02.974Z,11.00
2023-01-13T10:27:34.913Z,11.00
2023-01-13T10:30:35.659Z,11.10
2023-01-13T10:33:10.464Z,11.00
2023-01-13T10:36:02.247Z,11.10
2023-01-13T10:38:42.783Z,11.10
2023-01-13T10:43:44.151Z,11.20
2023-01-13T10:46:18.498Z,11.50
2023-01-13T10:49:25.119Z,11.50
2023-01-13T10:51:51.812Z,11.60
2023-01-13T10:54:22.361Z,11.60
2023-01-13T10:56:50.096Z,11.60
2023-01-13T10:59:26.804Z,11.60
2023-01-13T11:02:25.461Z,11.60
2023-01-13T11:04:55.794Z,11.60
2023-01-13T11:07:28.477Z,11.60
2023-01-13T11:10:18.860Z,11.70
2023-01-13T11:13:04.228Z,11.70
2023-01-13T11:15:43.680Z,11.70
2023-01-13T11:18:18.583Z,11.60
2023-01-13T11:20:48.978Z,11.40
2023-01-13T11:33:57.164Z,11.10
2023-01-13T11:36:31.490Z,11.00
2023-01-13T11:39:16.601Z,11.10
2023-01-13T11:41:43.447Z,11.00
2023-01-13T11:44:10.033Z,11.00
2023-01-13T11:46:36.938Z,11.00
2023-01-13T11:49:04.740Z,11.00
2023-01-13T11:51:49.653Z,11.00
2023-01-13T11:54:45.973Z,11.00
2023-01-13T11:57:34.008Z,11.00
2023-01-13T12:00:28.088Z,11.00
2023-01-13T12:08:18.185Z,11.00
2023-01-13T12:10:48.791Z,10.90
2023-01-13T12:13:27.485Z,10.80
2023-01-13T12:16:13.745Z,10.80
2023-01-13T12:18:58.484Z,10.80
2023-01-13T12:24:23.109Z,10.90
2023-01-13T12:26:55.711Z,10.90
2023-01-13T12:29:33.480Z,10.70
2023-01-13T12:32:03.208Z,10.60
2023-01-13T12:34:50.254Z,10.50
2023-01-13T12:37:32.763Z,10.60
2023-01-13T12:40:02.139Z,10.50
2023-01-13T12:43:03.940Z,10.60
2023-01-13T12:45:32.263Z,10.60
2023-01-13T12:48:00.095Z,10.60
2023-01-13T12:50:26.761Z,10.50
2023-01-13T12:52:54.495Z,10.30
2023-01-13T12:55:32.988Z,10.00
2023-01-13T12:58:02.344Z,9.70
2023-01-13T13:03:29.156Z,9.60
2023-01-13T13:06:12.625Z,9.70
2023-01-13T13:09:03.937Z,9.70
2023-01-13T13:11:59.630Z,9.80
2023-01-13T13:14:41.777Z,9.80
2023-01-13T13:17:29.619Z,9.90
2023-01-13T13:19:57.932Z,9.90
2023-01-13T13:22:27.526Z,9.90
2023-01-13T13:24:59.649Z,9.90
2023-01-13T13:27:32.084Z,9.90
2023-01-13T13:30:02.258Z,9.90
2023-01-13T13:32:37.517Z,10.40
2023-01-13T13:35:25.881Z,10.30
2023-01-13T13:38:38.329Z,10.20
2023-01-13T13:41:32.283Z,10.10
2023-01-13T13:44:23.666Z,10.10
2023-01-13T13:51:49.418Z,10.20
2023-01-13T13:54:21.219Z,10.30
2023-01-13T13:56:50.241Z,10.00
2023-01-13T13:59:23.348Z,9.90
2023-01-13T14:02:00.899Z,9.90
2023-01-13T14:04:30.608Z,9.90
2023-01-13T14:06:58.140Z,9.90
2023-01-13T14:14:26.909Z,9.80
2023-01-13T14:19:34.127Z,6.50
2023-01-13T14:22:03.539Z,5.40
2023-01-13T14:24:31.514Z,5.20
2023-01-13T14:27:18.840Z,5.10
2023-01-13T14:29:45.941Z,5.00
2023-01-13T14:32:19.458Z,5.00
2023-01-13T14:34:46.476Z,4.90
2023-01-13T14:37:28.142Z,4.90
2023-01-13T14:39:55.279Z,4.90
2023-01-13T14:42:22.151Z,4.90
2023-01-13T14:44:50.927Z,4.90
2023-01-13T14:47:29.003Z,4.90
2023-01-13T14:50:10.826Z,4.90
2023-01-13T14:52:48.137Z,5.00
2023-01-13T14:55:24.303Z,4.90
2023-01-13T14:57:51.311Z,4.90
2023-01-13T15:00:24.234Z,5.00
2023-01-13T15:02:57.038Z,5.00
2023-01-13T15:05:26.801Z,5.00
2023-01-13T15:07:57.522Z,5.00
2023-01-13T15:10:27.521Z,5.00
2023-01-13T15:12:57.660Z,5.10
2023-01-13T15:15:35.042Z,5.00
2023-01-13T15:18:05.618Z,5.00
2023-01-13T15:20:32.244Z,5.00
2023-01-13T15:22:59.661Z,4.90
2023-01-13T15:25:35.351Z,4.90
2023-01-13T15:28:03.480Z,4.90
2023-01-13T15:30:30.629Z,4.90
2023-01-13T15:32:58.337Z,4.90
2023-01-13T15:35:27.279Z,4.80
2023-01-13T15:37:56.063Z,4.90
2023-01-13T15:40:25.513Z,4.90
2023-01-13T15:43:11.041Z,4.90
2023-01-13T15:45:56.898Z,4.90
2023-01-13T15:48:26.244Z,4.90
2023-01-13T15:50:52.819Z,4.80
2023-01-13T15:53:20.074Z,4.70
2023-01-13T15:55:50.715Z,4.70
2023-01-13T15:58:21.013Z,4.70
2023-01-13T16:00:47.625Z,4.60
2023-01-13T16:03:15.744Z,4.60
2023-01-13T16:05:43.492Z,4.60
2023-01-13T16:08:16.872Z,4.50
2023-01-13T16:10:44.815Z,4.60
2023-01-13T16:13:12.372Z,4.60
2023-01-13T16:15:49.298Z,4.60
2023-01-13T16:18:18.678Z,4.60
2023-01-13T16:20:45.616Z,4.70
2023-01-13T16:23:13.339Z,4.70
2023-01-13T16:25:40.677Z,4.80
2023-01-13T16:28:07.292Z,4.80
2023-01-13T16:30:36.255Z,4.80
2023-01-13T16:33:03.595Z,4.90
2023-01-13T16:35:31.944Z,5.00
2023-01-13T16:37:59.738Z,5.00
2023-01-13T16:40:33.371Z,5.00
2023-01-13T16:43:03.151Z,5.10
2023-01-13T16:45:30.919Z,5.20
2023-01-13T16:47:57.670Z,5.10
2023-01-13T16:50:27.034Z,5.20
2023-01-13T16:52:53.690Z,5.20
2023-01-13T16:55:20.418Z,5.20
2023-01-13T16:57:47.809Z,5.20
2023-01-13T17:00:15.023Z,5.30
2023-01-13T17:02:41.703Z,5.30
2023-01-13T17:05:12.330Z,5.40
2023-01-13T17:07:40.992Z,5.40
2023-01-13T17:10:08.760Z,5.40
2023-01-13T17:12:35.369Z,5.40
2023-01-13T17:15:01.933Z,5.30
2023-01-13T17:17:28.543Z,5.30
2023-01-13T17:19:55.151Z,5.30
2023-01-13T17:22:22.512Z,5.30
2023-01-13T17:24:49.074Z,5.30
2023-01-13T17:27:17.205Z,5.40
2023-01-13T17:29:43.967Z,5.40
2023-01-13T17:32:19.745Z,5.40
2023-01-13T17:34:46.424Z,5.50
2023-01-13T17:37:14.455Z,5.50
2023-01-13T17:39:43.951Z,5.50
2023-01-13T17:42:11.169Z,5.50
2023-01-13T17:44:38.645Z,5.50
2023-01-13T17:47:05.879Z,5.50
2023-01-13T17:49:32.979Z,5.50
2023-01-13T17:51:59.797Z,5.60
2023-01-13T17:54:26.444Z,5.60
2023-01-13T17:56:53.079Z,5.70
2023-01-13T17:59:20.034Z,5.70
2023-01-13T18:01:46.832Z,5.70
2023-01-13T18:04:27.012Z,5.60
2023-01-13T18:06:53.978Z,5.70
2023-01-13T18:09:20.539Z,5.70
2023-01-13T18:11:47.436Z,5.80
2023-01-13T18:14:14.182Z,5.90
2023-01-13T18:16:40.860Z,6.00
2023-01-13T18:19:26.013Z,6.10
2023-01-13T18:22:11.385Z,6.10
2023-01-13T18:24:56.809Z,6.10
2023-01-13T18:27:41.586Z,6.10
2023-01-13T18:30:09.063Z,6.10
2023-01-13T18:32:36.005Z,6.10
2023-01-13T18:35:06.986Z,6.20
2023-01-13T18:37:38.670Z,6.20
2023-01-13T18:40:07.095Z,6.20
2023-01-13T18:42:51.921Z,6.20
2023-01-13T18:45:24.739Z,6.10
2023-01-13T18:47:51.897Z,6.00
2023-01-13T18:50:18.863Z,6.00
2023-01-13T18:52:45.717Z,6.00
2023-01-13T18:55:12.893Z,6.00
2023-01-13T18:57:40.192Z,6.00
2023-01-13T19:00:09.867Z,6.00
2023-01-13T19:02:36.732Z,6.00
2023-01-13T19:05:03.670Z,6.00
2023-01-13T19:07:31.831Z,5.90
2023-01-13T19:09:59.499Z,5.80
2023-01-13T19:12:27.499Z,5.70
2023-01-13T19:14:55.149Z,5.70
2023-01-13T19:17:24.184Z,5.60
2023-01-13T19:19:53.707Z,5.60
2023-01-13T19:22:23.756Z,5.60
2023-01-13T19:24:50.848Z,5.50
2023-01-13T19:27:19.765Z,5.50
2023-01-13T19:29:51.467Z,5.50
2023-01-13T19:32:20.858Z,5.40
2023-01-13T19:34:50.665Z,5.40
2023-01-13T19:37:17.749Z,5.40
2023-01-13T19:39:44.567Z,5.30
2023-01-13T19:42:31.264Z,5.40
2023-01-13T19:45:16.635Z,5.40
2023-01-13T19:47:45.355Z,5.40
2023-01-13T19:50:13.591Z,5.40
2023-01-13T19:52:41.753Z,5.40
2023-01-13T19:55:09.831Z,5.40
2023-01-13T19:57:38.259Z,5.40
2023-01-13T20:00:07.774Z,5.50
2023-01-13T20:02:36.518Z,5.50
2023-01-13T20:05:05.753Z,5.50
2023-01-13T20:07:35.082Z,5.60
2023-01-13T20:10:01.939Z,5.60
2023-01-13T20:12:29.563Z,5.50
2023-01-13T20:14:56.314Z,5.60
2023-01-13T20:17:23.127Z,5.50
2023-01-13T20:19:49.995Z,5.60
2023-01-13T20:22:16.637Z,5.60
2023-01-13T20:24:43.377Z,5.60
2023-01-13T20:27:10.233Z,5.50
2023-01-13T20:29:37.606Z,5.30
2023-01-13T20:34:31.346Z,5.00
2023-01-13T20:36:57.985Z,4.30
2023-01-13T20:39:26.490Z,4.30
2023-01-13T20:42:12.125Z,4.10
2023-01-13T20:44:38.935Z,4.00
2023-01-13T20:47:05.597Z,3.90
2023-01-13T20:49:35.280Z,3.90
2023-01-13T20:52:03.463Z,3.90
2023-01-13T20:54:30.051Z,3.90
2023-01-13T20:56:56.718Z,4.00
2023-01-13T20:59:23.323Z,4.00
2023-01-13T21:01:49.926Z,4.10
2023-01-13T21:04:16.721Z,4.10
2023-01-13T21:06:43.431Z,4.10
2023-01-13T21:09:10.185Z,4.20
2023-01-13T21:11:55.545Z,4.20
2023-01-13T21:14:44.154Z,4.20
2023-01-13T21:17:31.548Z,4.10
2023-01-13T21:19:58.288Z,4.10
2023-01-13T21:22:25.357Z,4.10
2023-01-13T21:24:51.973Z,4.00
2023-01-13T21:27:18.687Z,4.00
2023-01-13T21:29:46.207Z,4.00
2023-01-13T21:32:13.081Z,4.00
2023-01-13T21:34:39.680Z,3.90
2023-01-13T21:37:06.349Z,3.90
2023-01-13T21:39:33.031Z,3.90
2023-01-13T21:42:18.335Z,3.80
2023-01-13T21:45:03.699Z,3.70
2023-01-13T21:47:48.452Z,3.60
2023-01-13T21:50:21.416Z,3.50
2023-01-13T21:52:49.250Z,3.50
2023-01-13T21:55:17.071Z,3.40
2023-01-13T21:57:50.456Z,3.40
2023-01-13T22:00:19.218Z,3.30
2023-01-13T22:02:46.850Z,3.30
2023-01-13T22:10:21.049Z,3.20
2023-01-13T22:12:48.127Z,3.10
2023-01-13T22:15:16.366Z,3.10
2023-01-13T22:17:43.135Z,3.10
2023-01-13T22:20:13.317Z,3.10
2023-01-13T22:22:40.520Z,3.10
2023-01-13T22:25:10.604Z,3.10
2023-01-13T22:27:40.583Z,3.00
2023-01-13T22:30:11.521Z,3.00
2023-01-13T23:39:13.035Z,3.00
2023-01-13T23:41:39.716Z,3.70
2023-01-13T23:44:06.960Z,3.70
2023-01-13T23:46:35.143Z,3.70
2023-01-13T23:49:03.304Z,3.70
2023-01-13T23:51:30.143Z,3.80
2023-01-13T23:53:57.853Z,3.80
2023-01-13T23:56:28.039Z,3.80
2023-01-13T23:58:55.223Z,3.80
